X  Stänga Metar väderdata för luftfart        LYNI Nis Airport
Temperatur
81°F Temperatur
46°F Daggpunkt
30% Fuktighet



Vind
5 MPH
7 KM/T
2 M/S
4 KTS



-1°
VRB
Nuvarande omständigheter

Partly Cloudy Delvis molnigt
Tryck 1016 (hPa) - 30 (inHg)
Synlighet 6 (mil) - 10 (km)
Flygplats
Flygplatskod LYNI

Plats: Nis Airport
Distans: 63 (mi)

Metar:
METAR LYNI 271300Z VRB04KT 9999 SCT050 27/08 Q1017 NOSIG

Tid: 27-05-2024 15:00 CEST